sensor_id;sensor_type;location;lat;lon;timestamp;P1;durP1;ratioP1;P2;durP2;ratioP2
14251;SDS011;7210;51.502;10.722;2022-11-30T00:01:16;64.63;;;28.00;;
14251;SDS011;7210;51.502;10.722;2022-11-30T00:03:45;56.97;;;26.20;;
14251;SDS011;7210;51.502;10.722;2022-11-30T00:06:20;67.43;;;28.07;;
14251;SDS011;7210;51.502;10.722;2022-11-30T00:08:51;66.93;;;29.40;;
14251;SDS011;7210;51.502;10.722;2022-11-30T00:11:20;65.33;;;29.87;;
14251;SDS011;7210;51.502;10.722;2022-11-30T00:13:50;73.77;;;30.83;;
14251;SDS011;7210;51.502;10.722;2022-11-30T00:16:18;62.43;;;27.93;;
14251;SDS011;7210;51.502;10.722;2022-11-30T00:18:46;61.80;;;27.93;;
14251;SDS011;7210;51.502;10.722;2022-11-30T00:21:13;60.57;;;27.73;;
14251;SDS011;7210;51.502;10.722;2022-11-30T00:23:42;63.17;;;27.57;;
14251;SDS011;7210;51.502;10.722;2022-11-30T00:26:15;60.67;;;28.07;;
14251;SDS011;7210;51.502;10.722;2022-11-30T00:28:46;62.03;;;26.60;;
14251;SDS011;7210;51.502;10.722;2022-11-30T00:31:15;59.67;;;26.53;;
14251;SDS011;7210;51.502;10.722;2022-11-30T00:33:45;55.77;;;25.60;;
14251;SDS011;7210;51.502;10.722;2022-11-30T00:36:12;53.23;;;25.60;;
14251;SDS011;7210;51.502;10.722;2022-11-30T00:38:42;54.67;;;24.73;;
14251;SDS011;7210;51.502;10.722;2022-11-30T00:41:09;49.70;;;24.80;;
14251;SDS011;7210;51.502;10.722;2022-11-30T00:43:37;50.20;;;24.17;;
14251;SDS011;7210;51.502;10.722;2022-11-30T00:46:04;51.83;;;24.63;;
14251;SDS011;7210;51.502;10.722;2022-11-30T00:48:34;48.20;;;21.50;;
14251;SDS011;7210;51.502;10.722;2022-11-30T00:51:02;50.03;;;23.63;;
14251;SDS011;7210;51.502;10.722;2022-11-30T00:53:30;53.53;;;25.50;;
14251;SDS011;7210;51.502;10.722;2022-11-30T00:55:58;48.73;;;23.10;;
14251;SDS011;7210;51.502;10.722;2022-11-30T00:58:25;51.57;;;23.57;;
14251;SDS011;7210;51.502;10.722;2022-11-30T01:00:52;54.80;;;24.90;;
14251;SDS011;7210;51.502;10.722;2022-11-30T01:03:20;58.97;;;25.40;;
14251;SDS011;7210;51.502;10.722;2022-11-30T01:05:48;52.60;;;25.80;;
14251;SDS011;7210;51.502;10.722;2022-11-30T01:08:16;59.63;;;26.43;;
14251;SDS011;7210;51.502;10.722;2022-11-30T01:10:43;56.90;;;25.50;;
14251;SDS011;7210;51.502;10.722;2022-11-30T01:13:11;56.13;;;25.97;;
14251;SDS011;7210;51.502;10.722;2022-11-30T01:15:41;52.57;;;25.67;;
14251;SDS011;7210;51.502;10.722;2022-11-30T01:18:09;52.80;;;24.67;;
14251;SDS011;7210;51.502;10.722;2022-11-30T01:20:38;52.33;;;26.00;;
14251;SDS011;7210;51.502;10.722;2022-11-30T01:23:09;50.20;;;24.57;;
14251;SDS011;7210;51.502;10.722;2022-11-30T01:25:36;50.77;;;24.60;;
14251;SDS011;7210;51.502;10.722;2022-11-30T01:28:04;48.13;;;23.77;;
14251;SDS011;7210;51.502;10.722;2022-11-30T01:30:31;48.60;;;23.60;;
14251;SDS011;7210;51.502;10.722;2022-11-30T01:33:00;51.40;;;24.70;;
14251;SDS011;7210;51.502;10.722;2022-11-30T01:35:28;50.13;;;25.10;;
14251;SDS011;7210;51.502;10.722;2022-11-30T01:37:56;46.33;;;22.80;;
14251;SDS011;7210;51.502;10.722;2022-11-30T01:40:24;47.63;;;23.73;;
14251;SDS011;7210;51.502;10.722;2022-11-30T01:42:52;48.57;;;24.93;;
14251;SDS011;7210;51.502;10.722;2022-11-30T01:45:19;44.80;;;23.23;;
14251;SDS011;7210;51.502;10.722;2022-11-30T01:47:46;47.60;;;24.80;;
14251;SDS011;7210;51.502;10.722;2022-11-30T01:50:19;54.90;;;25.13;;
14251;SDS011;7210;51.502;10.722;2022-11-30T01:52:54;50.50;;;24.50;;
14251;SDS011;7210;51.502;10.722;2022-11-30T01:55:25;50.80;;;24.93;;
14251;SDS011;7210;51.502;10.722;2022-11-30T01:57:58;59.00;;;25.47;;
14251;SDS011;7210;51.502;10.722;2022-11-30T02:00:32;58.13;;;26.77;;
14251;SDS011;7210;51.502;10.722;2022-11-30T02:03:02;52.53;;;25.77;;
14251;SDS011;7210;51.502;10.722;2022-11-30T02:05:35;57.57;;;26.60;;
14251;SDS011;7210;51.502;10.722;2022-11-30T02:08:06;62.17;;;29.17;;
14251;SDS011;7210;51.502;10.722;2022-11-30T02:10:37;62.03;;;28.17;;
14251;SDS011;7210;51.502;10.722;2022-11-30T02:13:12;66.27;;;28.23;;
14251;SDS011;7210;51.502;10.722;2022-11-30T02:16:04;59.33;;;27.53;;
14251;SDS011;7210;51.502;10.722;2022-11-30T02:18:45;53.20;;;25.43;;
14251;SDS011;7210;51.502;10.722;2022-11-30T02:21:22;59.53;;;26.57;;
14251;SDS011;7210;51.502;10.722;2022-11-30T02:27:26;63.60;;;27.13;;
14251;SDS011;7210;51.502;10.722;2022-11-30T02:30:17;60.57;;;27.37;;
14251;SDS011;7210;51.502;10.722;2022-11-30T02:32:49;60.33;;;26.73;;
14251;SDS011;7210;51.502;10.722;2022-11-30T02:35:24;61.00;;;27.00;;
14251;SDS011;7210;51.502;10.722;2022-11-30T02:37:56;56.77;;;27.30;;
14251;SDS011;7210;51.502;10.722;2022-11-30T02:40:26;68.23;;;29.67;;
14251;SDS011;7210;51.502;10.722;2022-11-30T02:42:54;66.00;;;28.93;;
14251;SDS011;7210;51.502;10.722;2022-11-30T02:45:28;59.43;;;28.23;;
14251;SDS011;7210;51.502;10.722;2022-11-30T02:48:06;63.80;;;27.93;;
14251;SDS011;7210;51.502;10.722;2022-11-30T02:50:36;65.50;;;28.63;;
14251;SDS011;7210;51.502;10.722;2022-11-30T02:53:14;64.43;;;28.67;;
14251;SDS011;7210;51.502;10.722;2022-11-30T02:55:42;66.77;;;28.53;;
14251;SDS011;7210;51.502;10.722;2022-11-30T02:58:09;60.80;;;27.63;;
14251;SDS011;7210;51.502;10.722;2022-11-30T03:00:39;61.43;;;29.37;;
14251;SDS011;7210;51.502;10.722;2022-11-30T03:03:06;56.67;;;26.93;;
14251;SDS011;7210;51.502;10.722;2022-11-30T03:05:33;54.53;;;26.40;;
14251;SDS011;7210;51.502;10.722;2022-11-30T03:08:01;53.37;;;25.50;;
14251;SDS011;7210;51.502;10.722;2022-11-30T03:13:19;49.53;;;25.40;;
14251;SDS011;7210;51.502;10.722;2022-11-30T03:15:47;49.90;;;25.57;;
14251;SDS011;7210;51.502;10.722;2022-11-30T03:18:15;47.33;;;24.30;;
14251;SDS011;7210;51.502;10.722;2022-11-30T03:23:33;50.33;;;24.73;;
14251;SDS011;7210;51.502;10.722;2022-11-30T03:26:00;46.60;;;24.93;;
14251;SDS011;7210;51.502;10.722;2022-11-30T03:28:29;49.97;;;25.57;;
14251;SDS011;7210;51.502;10.722;2022-11-30T03:30:58;46.53;;;24.23;;
14251;SDS011;7210;51.502;10.722;2022-11-30T03:33:29;50.03;;;25.10;;
14251;SDS011;7210;51.502;10.722;2022-11-30T03:35:58;51.30;;;24.93;;
14251;SDS011;7210;51.502;10.722;2022-11-30T03:38:26;46.70;;;24.73;;
14251;SDS011;7210;51.502;10.722;2022-11-30T03:40:58;48.23;;;24.30;;
14251;SDS011;7210;51.502;10.722;2022-11-30T03:43:27;46.07;;;24.10;;
14251;SDS011;7210;51.502;10.722;2022-11-30T03:46:01;46.03;;;23.63;;
14251;SDS011;7210;51.502;10.722;2022-11-30T03:48:29;48.33;;;23.67;;
14251;SDS011;7210;51.502;10.722;2022-11-30T03:50:56;46.90;;;22.83;;
14251;SDS011;7210;51.502;10.722;2022-11-30T03:53:29;45.63;;;23.30;;
14251;SDS011;7210;51.502;10.722;2022-11-30T03:56:00;44.03;;;23.60;;
14251;SDS011;7210;51.502;10.722;2022-11-30T03:58:30;41.93;;;22.93;;
14251;SDS011;7210;51.502;10.722;2022-11-30T04:00:58;33.57;;;20.63;;
14251;SDS011;7210;51.502;10.722;2022-11-30T04:03:30;41.57;;;23.37;;
14251;SDS011;7210;51.502;10.722;2022-11-30T04:05:58;40.53;;;22.37;;
14251;SDS011;7210;51.502;10.722;2022-11-30T04:08:25;40.13;;;23.00;;
14251;SDS011;7210;51.502;10.722;2022-11-30T04:10:54;37.33;;;22.27;;
14251;SDS011;7210;51.502;10.722;2022-11-30T04:13:24;39.03;;;22.67;;
14251;SDS011;7210;51.502;10.722;2022-11-30T04:15:53;40.00;;;22.83;;
14251;SDS011;7210;51.502;10.722;2022-11-30T04:18:23;36.77;;;21.50;;
14251;SDS011;7210;51.502;10.722;2022-11-30T04:20:52;37.37;;;21.73;;
14251;SDS011;7210;51.502;10.722;2022-11-30T04:23:21;38.87;;;21.60;;
14251;SDS011;7210;51.502;10.722;2022-11-30T04:25:50;40.47;;;22.60;;
14251;SDS011;7210;51.502;10.722;2022-11-30T04:28:19;34.67;;;20.30;;
14251;SDS011;7210;51.502;10.722;2022-11-30T04:30:46;40.33;;;22.70;;
14251;SDS011;7210;51.502;10.722;2022-11-30T04:33:14;41.93;;;22.50;;
14251;SDS011;7210;51.502;10.722;2022-11-30T04:35:45;39.03;;;22.53;;
14251;SDS011;7210;51.502;10.722;2022-11-30T04:38:15;38.47;;;22.30;;
14251;SDS011;7210;51.502;10.722;2022-11-30T04:40:43;37.37;;;21.90;;
14251;SDS011;7210;51.502;10.722;2022-11-30T04:43:10;34.53;;;22.07;;
14251;SDS011;7210;51.502;10.722;2022-11-30T04:45:39;39.67;;;22.90;;
14251;SDS011;7210;51.502;10.722;2022-11-30T04:48:08;37.60;;;22.97;;
14251;SDS011;7210;51.502;10.722;2022-11-30T04:50:35;41.57;;;22.27;;
14251;SDS011;7210;51.502;10.722;2022-11-30T04:53:05;42.63;;;23.53;;
14251;SDS011;7210;51.502;10.722;2022-11-30T04:55:33;39.80;;;22.17;;
14251;SDS011;7210;51.502;10.722;2022-11-30T04:58:01;39.87;;;22.07;;
14251;SDS011;7210;51.502;10.722;2022-11-30T05:00:29;37.97;;;22.27;;
14251;SDS011;7210;51.502;10.722;2022-11-30T05:02:59;40.97;;;21.73;;
14251;SDS011;7210;51.502;10.722;2022-11-30T05:05:26;39.73;;;21.93;;
14251;SDS011;7210;51.502;10.722;2022-11-30T05:07:54;36.03;;;21.97;;
14251;SDS011;7210;51.502;10.722;2022-11-30T05:10:26;34.90;;;21.43;;
14251;SDS011;7210;51.502;10.722;2022-11-30T05:12:54;38.27;;;21.67;;
14251;SDS011;7210;51.502;10.722;2022-11-30T05:15:22;36.67;;;22.03;;
14251;SDS011;7210;51.502;10.722;2022-11-30T05:17:50;37.47;;;21.83;;
14251;SDS011;7210;51.502;10.722;2022-11-30T05:20:23;35.37;;;21.30;;
14251;SDS011;7210;51.502;10.722;2022-11-30T05:22:53;36.50;;;21.40;;
14251;SDS011;7210;51.502;10.722;2022-11-30T05:25:20;39.90;;;22.93;;
14251;SDS011;7210;51.502;10.722;2022-11-30T05:27:49;32.63;;;21.07;;
14251;SDS011;7210;51.502;10.722;2022-11-30T05:30:16;34.87;;;22.13;;
14251;SDS011;7210;51.502;10.722;2022-11-30T05:32:44;35.30;;;21.27;;
14251;SDS011;7210;51.502;10.722;2022-11-30T05:35:11;33.07;;;20.37;;
14251;SDS011;7210;51.502;10.722;2022-11-30T05:37:39;33.73;;;20.23;;
14251;SDS011;7210;51.502;10.722;2022-11-30T05:40:06;34.10;;;20.97;;
14251;SDS011;7210;51.502;10.722;2022-11-30T05:42:35;32.57;;;20.30;;
14251;SDS011;7210;51.502;10.722;2022-11-30T05:45:04;29.27;;;19.57;;
14251;SDS011;7210;51.502;10.722;2022-11-30T05:47:32;31.73;;;19.93;;
14251;SDS011;7210;51.502;10.722;2022-11-30T05:49:59;30.13;;;19.93;;
14251;SDS011;7210;51.502;10.722;2022-11-30T05:52:26;32.13;;;19.23;;
14251;SDS011;7210;51.502;10.722;2022-11-30T05:54:54;35.27;;;20.83;;
14251;SDS011;7210;51.502;10.722;2022-11-30T05:57:21;35.40;;;21.07;;
14251;SDS011;7210;51.502;10.722;2022-11-30T05:59:48;35.60;;;21.27;;
14251;SDS011;7210;51.502;10.722;2022-11-30T06:02:17;31.97;;;20.53;;
14251;SDS011;7210;51.502;10.722;2022-11-30T06:04:44;35.63;;;21.43;;
14251;SDS011;7210;51.502;10.722;2022-11-30T06:07:12;33.30;;;22.30;;
14251;SDS011;7210;51.502;10.722;2022-11-30T06:09:39;38.60;;;22.00;;
14251;SDS011;7210;51.502;10.722;2022-11-30T06:12:07;35.23;;;22.17;;
14251;SDS011;7210;51.502;10.722;2022-11-30T06:14:34;35.67;;;20.83;;
14251;SDS011;7210;51.502;10.722;2022-11-30T06:17:01;37.40;;;23.03;;
14251;SDS011;7210;51.502;10.722;2022-11-30T06:19:30;38.43;;;21.60;;
14251;SDS011;7210;51.502;10.722;2022-11-30T06:21:57;37.27;;;21.50;;
14251;SDS011;7210;51.502;10.722;2022-11-30T06:24:25;39.97;;;22.73;;
14251;SDS011;7210;51.502;10.722;2022-11-30T06:26:52;35.57;;;21.10;;
14251;SDS011;7210;51.502;10.722;2022-11-30T06:29:23;35.97;;;22.40;;
14251;SDS011;7210;51.502;10.722;2022-11-30T06:31:54;35.17;;;21.03;;
14251;SDS011;7210;51.502;10.722;2022-11-30T06:34:22;32.33;;;20.60;;
14251;SDS011;7210;51.502;10.722;2022-11-30T06:36:52;34.83;;;20.67;;
14251;SDS011;7210;51.502;10.722;2022-11-30T06:39:20;33.47;;;20.50;;
14251;SDS011;7210;51.502;10.722;2022-11-30T06:41:47;31.40;;;20.23;;
14251;SDS011;7210;51.502;10.722;2022-11-30T06:44:14;37.83;;;20.77;;
14251;SDS011;7210;51.502;10.722;2022-11-30T06:46:42;34.10;;;20.03;;
14251;SDS011;7210;51.502;10.722;2022-11-30T06:49:09;35.03;;;20.57;;
14251;SDS011;7210;51.502;10.722;2022-11-30T06:51:40;36.27;;;20.73;;
14251;SDS011;7210;51.502;10.722;2022-11-30T06:54:09;37.27;;;21.00;;
14251;SDS011;7210;51.502;10.722;2022-11-30T06:56:36;34.00;;;21.23;;
14251;SDS011;7210;51.502;10.722;2022-11-30T06:59:04;36.50;;;21.00;;
14251;SDS011;7210;51.502;10.722;2022-11-30T07:01:31;38.17;;;21.07;;
14251;SDS011;7210;51.502;10.722;2022-11-30T07:03:59;37.10;;;22.20;;
14251;SDS011;7210;51.502;10.722;2022-11-30T07:06:28;39.10;;;22.83;;
14251;SDS011;7210;51.502;10.722;2022-11-30T07:08:56;36.27;;;21.10;;
14251;SDS011;7210;51.502;10.722;2022-11-30T07:11:25;39.43;;;21.53;;
14251;SDS011;7210;51.502;10.722;2022-11-30T07:13:52;35.97;;;22.43;;
14251;SDS011;7210;51.502;10.722;2022-11-30T07:16:19;40.57;;;23.30;;
14251;SDS011;7210;51.502;10.722;2022-11-30T07:18:51;38.63;;;23.20;;
14251;SDS011;7210;51.502;10.722;2022-11-30T07:21:18;35.13;;;21.37;;
14251;SDS011;7210;51.502;10.722;2022-11-30T07:23:47;38.50;;;21.97;;
14251;SDS011;7210;51.502;10.722;2022-11-30T07:26:41;36.17;;;21.70;;
14251;SDS011;7210;51.502;10.722;2022-11-30T07:29:09;31.90;;;19.40;;
14251;SDS011;7210;51.502;10.722;2022-11-30T07:31:36;33.90;;;20.37;;
14251;SDS011;7210;51.502;10.722;2022-11-30T07:34:04;31.37;;;19.17;;
14251;SDS011;7210;51.502;10.722;2022-11-30T07:36:34;34.97;;;19.83;;
14251;SDS011;7210;51.502;10.722;2022-11-30T07:39:02;32.67;;;19.60;;
14251;SDS011;7210;51.502;10.722;2022-11-30T07:41:30;38.50;;;21.17;;
14251;SDS011;7210;51.502;10.722;2022-11-30T07:44:03;33.33;;;20.67;;
14251;SDS011;7210;51.502;10.722;2022-11-30T07:46:31;35.70;;;20.23;;
14251;SDS011;7210;51.502;10.722;2022-11-30T07:49:00;35.53;;;20.00;;
14251;SDS011;7210;51.502;10.722;2022-11-30T07:51:28;34.80;;;20.20;;
14251;SDS011;7210;51.502;10.722;2022-11-30T07:53:55;33.33;;;19.43;;
14251;SDS011;7210;51.502;10.722;2022-11-30T07:56:24;34.30;;;18.73;;
14251;SDS011;7210;51.502;10.722;2022-11-30T07:58:54;35.27;;;18.80;;
14251;SDS011;7210;51.502;10.722;2022-11-30T08:01:26;34.20;;;19.27;;
14251;SDS011;7210;51.502;10.722;2022-11-30T08:03:56;33.13;;;17.40;;
14251;SDS011;7210;51.502;10.722;2022-11-30T08:06:25;33.00;;;17.63;;
14251;SDS011;7210;51.502;10.722;2022-11-30T08:08:55;35.23;;;17.90;;
14251;SDS011;7210;51.502;10.722;2022-11-30T08:11:25;31.27;;;17.03;;
14251;SDS011;7210;51.502;10.722;2022-11-30T08:13:54;32.80;;;17.63;;
14251;SDS011;7210;51.502;10.722;2022-11-30T08:16:22;29.83;;;17.37;;
14251;SDS011;7210;51.502;10.722;2022-11-30T08:18:54;30.47;;;17.47;;
14251;SDS011;7210;51.502;10.722;2022-11-30T08:21:22;29.13;;;17.57;;
14251;SDS011;7210;51.502;10.722;2022-11-30T08:23:51;29.10;;;17.10;;
14251;SDS011;7210;51.502;10.722;2022-11-30T08:26:21;28.27;;;16.53;;
14251;SDS011;7210;51.502;10.722;2022-11-30T08:28:51;29.20;;;17.27;;
14251;SDS011;7210;51.502;10.722;2022-11-30T08:31:20;27.73;;;15.53;;
14251;SDS011;7210;51.502;10.722;2022-11-30T08:33:54;28.67;;;17.30;;
14251;SDS011;7210;51.502;10.722;2022-11-30T08:36:23;29.33;;;17.27;;
14251;SDS011;7210;51.502;10.722;2022-11-30T08:38:52;32.87;;;18.93;;
14251;SDS011;7210;51.502;10.722;2022-11-30T08:41:21;36.10;;;20.07;;
14251;SDS011;7210;51.502;10.722;2022-11-30T08:43:51;31.47;;;18.33;;
14251;SDS011;7210;51.502;10.722;2022-11-30T08:46:21;31.80;;;19.43;;
14251;SDS011;7210;51.502;10.722;2022-11-30T08:48:55;30.57;;;19.00;;
14251;SDS011;7210;51.502;10.722;2022-11-30T08:51:22;29.63;;;19.00;;
14251;SDS011;7210;51.502;10.722;2022-11-30T08:53:50;31.80;;;19.93;;
14251;SDS011;7210;51.502;10.722;2022-11-30T08:56:18;31.67;;;19.37;;
14251;SDS011;7210;51.502;10.722;2022-11-30T08:58:48;29.43;;;18.87;;
14251;SDS011;7210;51.502;10.722;2022-11-30T09:01:16;30.07;;;19.27;;
14251;SDS011;7210;51.502;10.722;2022-11-30T09:03:46;32.10;;;19.37;;
14251;SDS011;7210;51.502;10.722;2022-11-30T09:06:18;29.00;;;17.83;;
14251;SDS011;7210;51.502;10.722;2022-11-30T09:08:47;26.43;;;17.07;;
14251;SDS011;7210;51.502;10.722;2022-11-30T09:11:17;27.70;;;19.13;;
14251;SDS011;7210;51.502;10.722;2022-11-30T09:13:48;28.40;;;18.07;;
14251;SDS011;7210;51.502;10.722;2022-11-30T09:16:16;26.93;;;17.40;;
14251;SDS011;7210;51.502;10.722;2022-11-30T09:18:45;27.27;;;18.00;;
14251;SDS011;7210;51.502;10.722;2022-11-30T09:21:15;25.27;;;17.73;;
14251;SDS011;7210;51.502;10.722;2022-11-30T09:23:47;26.27;;;17.47;;
14251;SDS011;7210;51.502;10.722;2022-11-30T09:26:17;24.67;;;17.47;;
14251;SDS011;7210;51.502;10.722;2022-11-30T09:28:49;23.67;;;16.50;;
14251;SDS011;7210;51.502;10.722;2022-11-30T09:31:19;23.17;;;16.37;;
14251;SDS011;7210;51.502;10.722;2022-11-30T09:33:49;25.77;;;18.20;;
14251;SDS011;7210;51.502;10.722;2022-11-30T09:36:20;25.00;;;16.80;;
14251;SDS011;7210;51.502;10.722;2022-11-30T09:38:48;25.47;;;17.60;;
14251;SDS011;7210;51.502;10.722;2022-11-30T09:41:23;22.00;;;16.37;;
14251;SDS011;7210;51.502;10.722;2022-11-30T09:44:45;25.53;;;16.70;;
14251;SDS011;7210;51.502;10.722;2022-11-30T09:47:26;24.63;;;16.03;;
14251;SDS011;7210;51.502;10.722;2022-11-30T09:50:23;22.10;;;15.30;;
14251;SDS011;7210;51.502;10.722;2022-11-30T09:52:56;24.83;;;15.97;;
14251;SDS011;7210;51.502;10.722;2022-11-30T09:55:36;22.50;;;15.63;;
14251;SDS011;7210;51.502;10.722;2022-11-30T09:58:09;22.10;;;15.53;;
14251;SDS011;7210;51.502;10.722;2022-11-30T10:00:48;21.37;;;15.23;;
14251;SDS011;7210;51.502;10.722;2022-11-30T10:03:15;20.03;;;14.67;;
14251;SDS011;7210;51.502;10.722;2022-11-30T10:05:49;22.63;;;16.17;;
14251;SDS011;7210;51.502;10.722;2022-11-30T10:08:37;22.10;;;15.13;;
14251;SDS011;7210;51.502;10.722;2022-11-30T10:11:22;25.60;;;16.87;;
14251;SDS011;7210;51.502;10.722;2022-11-30T10:14:13;25.10;;;16.47;;
14251;SDS011;7210;51.502;10.722;2022-11-30T10:16:59;23.67;;;16.20;;
14251;SDS011;7210;51.502;10.722;2022-11-30T10:19:56;23.27;;;16.83;;
14251;SDS011;7210;51.502;10.722;2022-11-30T10:22:44;25.43;;;16.73;;
14251;SDS011;7210;51.502;10.722;2022-11-30T10:25:39;25.70;;;16.63;;
14251;SDS011;7210;51.502;10.722;2022-11-30T10:28:22;25.83;;;16.13;;
14251;SDS011;7210;51.502;10.722;2022-11-30T10:31:02;24.90;;;16.53;;
14251;SDS011;7210;51.502;10.722;2022-11-30T10:33:31;21.63;;;15.23;;
14251;SDS011;7210;51.502;10.722;2022-11-30T10:36:08;25.97;;;17.10;;
14251;SDS011;7210;51.502;10.722;2022-11-30T10:38:54;25.00;;;16.40;;
14251;SDS011;7210;51.502;10.722;2022-11-30T10:41:30;25.47;;;16.20;;
14251;SDS011;7210;51.502;10.722;2022-11-30T10:44:03;22.87;;;16.57;;
14251;SDS011;7210;51.502;10.722;2022-11-30T10:46:41;22.60;;;15.87;;
14251;SDS011;7210;51.502;10.722;2022-11-30T10:49:18;24.57;;;17.23;;
14251;SDS011;7210;51.502;10.722;2022-11-30T10:51:49;27.00;;;17.13;;
14251;SDS011;7210;51.502;10.722;2022-11-30T10:54:22;27.17;;;17.70;;
14251;SDS011;7210;51.502;10.722;2022-11-30T10:56:51;25.73;;;17.50;;
14251;SDS011;7210;51.502;10.722;2022-11-30T10:59:20;23.93;;;16.97;;
14251;SDS011;7210;51.502;10.722;2022-11-30T11:01:52;28.47;;;18.67;;
14251;SDS011;7210;51.502;10.722;2022-11-30T11:04:20;26.83;;;18.30;;
14251;SDS011;7210;51.502;10.722;2022-11-30T11:06:49;29.87;;;18.50;;
14251;SDS011;7210;51.502;10.722;2022-11-30T11:09:28;26.37;;;17.40;;
14251;SDS011;7210;51.502;10.722;2022-11-30T11:12:05;26.90;;;17.43;;
14251;SDS011;7210;51.502;10.722;2022-11-30T11:14:41;24.87;;;16.90;;
14251;SDS011;7210;51.502;10.722;2022-11-30T11:17:20;24.17;;;16.93;;
14251;SDS011;7210;51.502;10.722;2022-11-30T11:19:50;25.60;;;17.30;;
14251;SDS011;7210;51.502;10.722;2022-11-30T11:22:18;25.93;;;18.27;;
14251;SDS011;7210;51.502;10.722;2022-11-30T11:24:48;25.73;;;18.40;;
14251;SDS011;7210;51.502;10.722;2022-11-30T11:27:22;26.83;;;18.17;;
14251;SDS011;7210;51.502;10.722;2022-11-30T11:29:57;24.50;;;17.33;;
14251;SDS011;7210;51.502;10.722;2022-11-30T11:32:30;26.83;;;18.60;;
14251;SDS011;7210;51.502;10.722;2022-11-30T11:34:58;26.93;;;18.13;;
14251;SDS011;7210;51.502;10.722;2022-11-30T11:37:26;27.90;;;19.53;;
14251;SDS011;7210;51.502;10.722;2022-11-30T11:39:56;27.50;;;19.63;;
14251;SDS011;7210;51.502;10.722;2022-11-30T11:42:34;27.73;;;19.07;;
14251;SDS011;7210;51.502;10.722;2022-11-30T11:45:13;26.67;;;19.13;;
14251;SDS011;7210;51.502;10.722;2022-11-30T11:47:45;28.57;;;20.20;;
14251;SDS011;7210;51.502;10.722;2022-11-30T11:50:25;31.10;;;21.80;;
14251;SDS011;7210;51.502;10.722;2022-11-30T11:55:54;28.93;;;21.07;;
14251;SDS011;7210;51.502;10.722;2022-11-30T11:58:32;32.87;;;22.67;;
14251;SDS011;7210;51.502;10.722;2022-11-30T12:01:07;34.53;;;23.37;;
14251;SDS011;7210;51.502;10.722;2022-11-30T12:03:49;31.93;;;21.87;;
14251;SDS011;7210;51.502;10.722;2022-11-30T12:06:30;33.43;;;22.37;;
14251;SDS011;7210;51.502;10.722;2022-11-30T12:09:02;33.63;;;22.27;;
14251;SDS011;7210;51.502;10.722;2022-11-30T12:11:40;33.47;;;21.97;;
14251;SDS011;7210;51.502;10.722;2022-11-30T12:14:12;32.57;;;22.27;;
14251;SDS011;7210;51.502;10.722;2022-11-30T12:16:49;38.33;;;23.07;;
14251;SDS011;7210;51.502;10.722;2022-11-30T12:19:50;34.57;;;21.77;;
14251;SDS011;7210;51.502;10.722;2022-11-30T12:22:45;34.07;;;21.90;;
14251;SDS011;7210;51.502;10.722;2022-11-30T12:25:38;33.87;;;22.03;;
14251;SDS011;7210;51.502;10.722;2022-11-30T12:28:17;31.60;;;21.70;;
14251;SDS011;7210;51.502;10.722;2022-11-30T12:30:57;32.17;;;22.30;;
14251;SDS011;7210;51.502;10.722;2022-11-30T12:36:37;34.20;;;23.23;;
14251;SDS011;7210;51.502;10.722;2022-11-30T12:39:25;34.37;;;23.17;;
14251;SDS011;7210;51.502;10.722;2022-11-30T12:42:05;39.03;;;26.00;;
14251;SDS011;7210;51.502;10.722;2022-11-30T12:44:43;35.20;;;24.73;;
14251;SDS011;7210;51.502;10.722;2022-11-30T12:47:34;39.87;;;26.20;;
14251;SDS011;7210;51.502;10.722;2022-11-30T12:50:18;35.03;;;24.23;;
14251;SDS011;7210;51.502;10.722;2022-11-30T12:52:59;37.87;;;26.10;;
14251;SDS011;7210;51.502;10.722;2022-11-30T12:55:43;38.93;;;26.50;;
14251;SDS011;7210;51.502;10.722;2022-11-30T12:58:24;37.50;;;26.23;;
14251;SDS011;7210;51.502;10.722;2022-11-30T13:01:11;38.03;;;26.10;;
14251;SDS011;7210;51.502;10.722;2022-11-30T13:04:01;35.23;;;25.83;;
14251;SDS011;7210;51.502;10.722;2022-11-30T13:06:39;34.53;;;24.60;;
14251;SDS011;7210;51.502;10.722;2022-11-30T13:09:16;37.40;;;25.67;;
14251;SDS011;7210;51.502;10.722;2022-11-30T13:11:54;33.87;;;24.83;;
14251;SDS011;7210;51.502;10.722;2022-11-30T13:14:29;34.73;;;25.83;;
14251;SDS011;7210;51.502;10.722;2022-11-30T13:17:00;34.60;;;24.80;;
14251;SDS011;7210;51.502;10.722;2022-11-30T13:19:38;35.77;;;25.37;;
14251;SDS011;7210;51.502;10.722;2022-11-30T13:22:21;36.03;;;25.77;;
14251;SDS011;7210;51.502;10.722;2022-11-30T13:25:06;36.83;;;25.33;;
14251;SDS011;7210;51.502;10.722;2022-11-30T13:27:49;40.23;;;27.50;;
14251;SDS011;7210;51.502;10.722;2022-11-30T13:30:29;38.20;;;26.40;;
14251;SDS011;7210;51.502;10.722;2022-11-30T13:36:29;37.27;;;26.00;;
14251;SDS011;7210;51.502;10.722;2022-11-30T13:39:08;39.13;;;27.73;;
14251;SDS011;7210;51.502;10.722;2022-11-30T13:45:16;38.03;;;26.70;;
14251;SDS011;7210;51.502;10.722;2022-11-30T13:47:56;65.57;;;43.83;;
14251;SDS011;7210;51.502;10.722;2022-11-30T13:50:31;281.93;;;199.97;;
14251;SDS011;7210;51.502;10.722;2022-11-30T13:53:21;124.93;;;88.13;;
14251;SDS011;7210;51.502;10.722;2022-11-30T13:55:52;91.60;;;63.53;;
14251;SDS011;7210;51.502;10.722;2022-11-30T13:58:33;66.47;;;48.40;;
14251;SDS011;7210;51.502;10.722;2022-11-30T14:01:41;56.57;;;39.50;;
14251;SDS011;7210;51.502;10.722;2022-11-30T14:10:22;54.10;;;36.70;;
14251;SDS011;7210;51.502;10.722;2022-11-30T14:12:57;54.87;;;34.57;;
14251;SDS011;7210;51.502;10.722;2022-11-30T14:15:28;53.20;;;36.30;;
14251;SDS011;7210;51.502;10.722;2022-11-30T14:18:26;48.67;;;34.40;;
14251;SDS011;7210;51.502;10.722;2022-11-30T14:21:15;52.23;;;34.40;;
14251;SDS011;7210;51.502;10.722;2022-11-30T14:23:51;53.30;;;34.73;;
14251;SDS011;7210;51.502;10.722;2022-11-30T14:26:26;54.63;;;36.50;;
14251;SDS011;7210;51.502;10.722;2022-11-30T14:29:00;55.40;;;37.43;;
14251;SDS011;7210;51.502;10.722;2022-11-30T14:31:50;56.03;;;37.37;;
14251;SDS011;7210;51.502;10.722;2022-11-30T14:34:23;55.30;;;37.10;;
14251;SDS011;7210;51.502;10.722;2022-11-30T14:36:57;56.27;;;36.43;;
14251;SDS011;7210;51.502;10.722;2022-11-30T14:39:30;60.67;;;41.00;;
14251;SDS011;7210;51.502;10.722;2022-11-30T14:42:02;62.37;;;40.63;;
14251;SDS011;7210;51.502;10.722;2022-11-30T14:44:35;69.77;;;48.97;;
14251;SDS011;7210;51.502;10.722;2022-11-30T14:47:13;68.83;;;47.80;;
14251;SDS011;7210;51.502;10.722;2022-11-30T14:49:44;79.27;;;55.40;;
14251;SDS011;7210;51.502;10.722;2022-11-30T14:52:13;83.70;;;74.20;;
14251;SDS011;7210;51.502;10.722;2022-11-30T14:54:53;61.43;;;48.33;;
14251;SDS011;7210;51.502;10.722;2022-11-30T14:57:40;53.27;;;37.80;;
14251;SDS011;7210;51.502;10.722;2022-11-30T15:00:18;51.30;;;37.43;;
14251;SDS011;7210;51.502;10.722;2022-11-30T15:02:47;47.23;;;35.37;;
14251;SDS011;7210;51.502;10.722;2022-11-30T15:05:15;45.03;;;34.17;;
14251;SDS011;7210;51.502;10.722;2022-11-30T15:07:47;51.13;;;38.37;;
14251;SDS011;7210;51.502;10.722;2022-11-30T15:10:18;52.20;;;40.07;;
14251;SDS011;7210;51.502;10.722;2022-11-30T15:12:57;57.70;;;47.07;;
14251;SDS011;7210;51.502;10.722;2022-11-30T15:15:27;51.63;;;42.77;;
14251;SDS011;7210;51.502;10.722;2022-11-30T15:17:56;40.93;;;33.67;;
14251;SDS011;7210;51.502;10.722;2022-11-30T15:20:35;40.40;;;31.97;;